sensor_id;sensor_type;location;lat;lon;timestamp;temperature;humidity
27258;DHT22;62045;49.986;8.672;2022-07-23T00:00:54;29.00;44.00
27258;DHT22;62045;49.986;8.672;2022-07-23T00:05:57;29.00;44.00
27258;DHT22;62045;49.986;8.672;2022-07-23T00:10:58;29.00;44.00
27258;DHT22;62045;49.986;8.672;2022-07-23T00:15:58;29.00;44.00
27258;DHT22;62045;49.986;8.672;2022-07-23T00:21:01;29.00;44.00
27258;DHT22;62045;49.986;8.672;2022-07-23T00:26:01;29.00;44.00
27258;DHT22;62045;49.986;8.672;2022-07-23T00:31:02;29.00;44.00
27258;DHT22;62045;49.986;8.672;2022-07-23T00:36:07;29.00;43.90
27258;DHT22;62045;49.986;8.672;2022-07-23T00:41:08;29.00;43.90
27258;DHT22;62045;49.986;8.672;2022-07-23T00:46:09;29.00;43.90
27258;DHT22;62045;49.986;8.672;2022-07-23T00:51:11;29.00;43.90
27258;DHT22;62045;49.986;8.672;2022-07-23T00:56:12;29.00;43.90
27258;DHT22;62045;49.986;8.672;2022-07-23T01:01:13;29.00;43.90
27258;DHT22;62045;49.986;8.672;2022-07-23T01:06:15;29.00;43.90
27258;DHT22;62045;49.986;8.672;2022-07-23T01:11:18;29.00;43.80
27258;DHT22;62045;49.986;8.672;2022-07-23T01:16:19;29.00;43.80
27258;DHT22;62045;49.986;8.672;2022-07-23T01:21:22;28.90;43.80
27258;DHT22;62045;49.986;8.672;2022-07-23T01:26:24;28.90;43.80
27258;DHT22;62045;49.986;8.672;2022-07-23T01:31:25;28.90;43.90
27258;DHT22;62045;49.986;8.672;2022-07-23T01:36:26;28.90;43.90
27258;DHT22;62045;49.986;8.672;2022-07-23T01:41:29;28.80;43.90
27258;DHT22;62045;49.986;8.672;2022-07-23T01:46:30;28.80;43.90
27258;DHT22;62045;49.986;8.672;2022-07-23T01:51:32;28.80;44.00
27258;DHT22;62045;49.986;8.672;2022-07-23T01:56:47;28.80;44.10
27258;DHT22;62045;49.986;8.672;2022-07-23T02:01:48;28.80;44.10
27258;DHT22;62045;49.986;8.672;2022-07-23T02:06:49;28.70;44.10
27258;DHT22;62045;49.986;8.672;2022-07-23T02:11:51;28.70;44.10
27258;DHT22;62045;49.986;8.672;2022-07-23T02:16:53;28.70;44.10
27258;DHT22;62045;49.986;8.672;2022-07-23T02:21:54;28.70;44.10
27258;DHT22;62045;49.986;8.672;2022-07-23T02:26:57;28.70;44.10
27258;DHT22;62045;49.986;8.672;2022-07-23T02:31:58;28.70;44.10
27258;DHT22;62045;49.986;8.672;2022-07-23T02:36:59;28.70;44.10
27258;DHT22;62045;49.986;8.672;2022-07-23T02:42:03;28.70;44.00
27258;DHT22;62045;49.986;8.672;2022-07-23T02:47:07;28.70;44.00
27258;DHT22;62045;49.986;8.672;2022-07-23T02:52:08;28.70;44.00
27258;DHT22;62045;49.986;8.672;2022-07-23T02:57:10;28.70;44.00
27258;DHT22;62045;49.986;8.672;2022-07-23T03:02:11;28.70;44.00
27258;DHT22;62045;49.986;8.672;2022-07-23T03:07:13;28.70;43.90
27258;DHT22;62045;49.986;8.672;2022-07-23T03:12:15;28.70;43.90
27258;DHT22;62045;49.986;8.672;2022-07-23T03:17:16;28.70;43.90
27258;DHT22;62045;49.986;8.672;2022-07-23T03:22:17;28.70;43.90
27258;DHT22;62045;49.986;8.672;2022-07-23T03:27:19;28.70;43.90
27258;DHT22;62045;49.986;8.672;2022-07-23T03:32:21;28.70;43.90
27258;DHT22;62045;49.986;8.672;2022-07-23T03:37:22;28.70;43.90
27258;DHT22;62045;49.986;8.672;2022-07-23T03:42:24;28.70;43.90
27258;DHT22;62045;49.986;8.672;2022-07-23T03:47:25;28.70;44.00
27258;DHT22;62045;49.986;8.672;2022-07-23T03:52:26;28.70;44.00
27258;DHT22;62045;49.986;8.672;2022-07-23T03:57:28;28.60;44.00
27258;DHT22;62045;49.986;8.672;2022-07-23T04:02:29;28.60;44.00
27258;DHT22;62045;49.986;8.672;2022-07-23T04:07:30;28.60;44.10
27258;DHT22;62045;49.986;8.672;2022-07-23T04:12:33;28.60;44.10
27258;DHT22;62045;49.986;8.672;2022-07-23T04:17:34;28.50;44.00
27258;DHT22;62045;49.986;8.672;2022-07-23T04:22:36;28.50;44.10
27258;DHT22;62045;49.986;8.672;2022-07-23T04:27:38;28.50;44.10
27258;DHT22;62045;49.986;8.672;2022-07-23T04:32:39;28.50;44.10
27258;DHT22;62045;49.986;8.672;2022-07-23T04:37:48;28.50;44.10
27258;DHT22;62045;49.986;8.672;2022-07-23T04:42:53;28.40;44.10
27258;DHT22;62045;49.986;8.672;2022-07-23T04:47:55;28.40;44.10
27258;DHT22;62045;49.986;8.672;2022-07-23T04:52:56;28.40;44.10
27258;DHT22;62045;49.986;8.672;2022-07-23T04:57:59;28.40;44.20
27258;DHT22;62045;49.986;8.672;2022-07-23T05:03:00;28.40;44.20
27258;DHT22;62045;49.986;8.672;2022-07-23T05:08:01;28.40;44.30
27258;DHT22;62045;49.986;8.672;2022-07-23T05:13:04;28.40;44.30
27258;DHT22;62045;49.986;8.672;2022-07-23T05:18:05;28.40;44.20
27258;DHT22;62045;49.986;8.672;2022-07-23T05:23:07;28.40;44.20
27258;DHT22;62045;49.986;8.672;2022-07-23T05:28:09;28.40;44.10
27258;DHT22;62045;49.986;8.672;2022-07-23T05:33:10;28.40;44.20
27258;DHT22;62045;49.986;8.672;2022-07-23T05:38:11;28.40;44.10
27258;DHT22;62045;49.986;8.672;2022-07-23T05:43:15;28.40;44.10
27258;DHT22;62045;49.986;8.672;2022-07-23T05:48:16;28.40;44.10
27258;DHT22;62045;49.986;8.672;2022-07-23T05:53:30;28.40;44.10
27258;DHT22;62045;49.986;8.672;2022-07-23T05:58:35;28.40;44.10
27258;DHT22;62045;49.986;8.672;2022-07-23T06:03:37;28.40;44.00
27258;DHT22;62045;49.986;8.672;2022-07-23T06:08:38;28.40;44.10
27258;DHT22;62045;49.986;8.672;2022-07-23T06:13:43;28.40;44.10
27258;DHT22;62045;49.986;8.672;2022-07-23T06:18:44;28.30;44.00
27258;DHT22;62045;49.986;8.672;2022-07-23T06:23:45;28.30;44.00
27258;DHT22;62045;49.986;8.672;2022-07-23T06:28:47;28.30;44.10
27258;DHT22;62045;49.986;8.672;2022-07-23T06:33:49;28.20;44.00
27258;DHT22;62045;49.986;8.672;2022-07-23T06:38:50;28.20;44.00
27258;DHT22;62045;49.986;8.672;2022-07-23T06:43:52;28.20;44.10
27258;DHT22;62045;49.986;8.672;2022-07-23T06:48:56;28.20;44.10
27258;DHT22;62045;49.986;8.672;2022-07-23T06:53:56;28.20;44.10
27258;DHT22;62045;49.986;8.672;2022-07-23T06:58:59;28.10;44.10
27258;DHT22;62045;49.986;8.672;2022-07-23T07:04:01;28.10;44.10
27258;DHT22;62045;49.986;8.672;2022-07-23T07:09:02;28.10;44.10
27258;DHT22;62045;49.986;8.672;2022-07-23T07:14:04;28.10;44.10
27258;DHT22;62045;49.986;8.672;2022-07-23T07:19:05;28.10;44.10
27258;DHT22;62045;49.986;8.672;2022-07-23T07:24:06;28.10;44.20
27258;DHT22;62045;49.986;8.672;2022-07-23T07:29:08;28.10;44.10
27258;DHT22;62045;49.986;8.672;2022-07-23T07:34:09;28.10;44.10
27258;DHT22;62045;49.986;8.672;2022-07-23T07:39:10;28.10;44.00
27258;DHT22;62045;49.986;8.672;2022-07-23T07:44:12;28.10;44.00
27258;DHT22;62045;49.986;8.672;2022-07-23T07:49:13;28.10;44.00
27258;DHT22;62045;49.986;8.672;2022-07-23T07:54:14;28.20;44.10
27258;DHT22;62045;49.986;8.672;2022-07-23T07:59:16;28.20;44.10
27258;DHT22;62045;49.986;8.672;2022-07-23T08:04:17;28.20;44.00
27258;DHT22;62045;49.986;8.672;2022-07-23T08:09:18;28.20;44.00
27258;DHT22;62045;49.986;8.672;2022-07-23T08:14:20;28.20;43.90
27258;DHT22;62045;49.986;8.672;2022-07-23T08:19:21;28.20;43.90
27258;DHT22;62045;49.986;8.672;2022-07-23T08:24:22;28.20;43.90
27258;DHT22;62045;49.986;8.672;2022-07-23T08:29:24;28.20;43.90
27258;DHT22;62045;49.986;8.672;2022-07-23T08:34:25;28.20;43.80
27258;DHT22;62045;49.986;8.672;2022-07-23T08:39:26;28.30;43.90
27258;DHT22;62045;49.986;8.672;2022-07-23T08:44:28;28.30;43.80
27258;DHT22;62045;49.986;8.672;2022-07-23T08:49:29;28.30;43.80
27258;DHT22;62045;49.986;8.672;2022-07-23T08:54:31;28.30;43.80
27258;DHT22;62045;49.986;8.672;2022-07-23T08:59:33;28.30;43.80
27258;DHT22;62045;49.986;8.672;2022-07-23T09:04:34;28.30;43.70
27258;DHT22;62045;49.986;8.672;2022-07-23T09:09:35;28.30;43.70
27258;DHT22;62045;49.986;8.672;2022-07-23T09:14:39;28.30;43.70
27258;DHT22;62045;49.986;8.672;2022-07-23T09:19:41;28.30;43.70
27258;DHT22;62045;49.986;8.672;2022-07-23T09:25:03;28.30;43.70
27258;DHT22;62045;49.986;8.672;2022-07-23T09:30:07;28.30;43.70
27258;DHT22;62045;49.986;8.672;2022-07-23T09:35:08;28.30;43.70
27258;DHT22;62045;49.986;8.672;2022-07-23T09:40:10;28.30;43.70
27258;DHT22;62045;49.986;8.672;2022-07-23T09:45:12;28.30;43.70
27258;DHT22;62045;49.986;8.672;2022-07-23T09:50:13;28.30;43.80
27258;DHT22;62045;49.986;8.672;2022-07-23T09:55:15;28.20;43.70
27258;DHT22;62045;49.986;8.672;2022-07-23T10:00:17;28.20;43.70
27258;DHT22;62045;49.986;8.672;2022-07-23T10:05:19;28.20;43.70
27258;DHT22;62045;49.986;8.672;2022-07-23T10:10:41;28.20;43.80
27258;DHT22;62045;49.986;8.672;2022-07-23T10:16:18;28.20;43.80
27258;DHT22;62045;49.986;8.672;2022-07-23T10:21:25;28.10;43.70
27258;DHT22;62045;49.986;8.672;2022-07-23T10:26:38;28.10;43.80
27258;DHT22;62045;49.986;8.672;2022-07-23T10:31:50;28.10;43.80
27258;DHT22;62045;49.986;8.672;2022-07-23T10:36:57;28.10;43.80
27258;DHT22;62045;49.986;8.672;2022-07-23T10:42:18;28.10;44.10
27258;DHT22;62045;49.986;8.672;2022-07-23T10:47:27;28.10;46.20
27258;DHT22;62045;49.986;8.672;2022-07-23T10:52:28;28.10;47.30
27258;DHT22;62045;49.986;8.672;2022-07-23T10:57:29;28.10;46.20
27258;DHT22;62045;49.986;8.672;2022-07-23T11:02:34;28.20;45.90
27258;DHT22;62045;49.986;8.672;2022-07-23T11:07:36;28.20;45.60
27258;DHT22;62045;49.986;8.672;2022-07-23T11:12:37;28.20;45.60
27258;DHT22;62045;49.986;8.672;2022-07-23T11:17:59;28.20;45.60
27258;DHT22;62045;49.986;8.672;2022-07-23T11:23:00;28.20;45.50
27258;DHT22;62045;49.986;8.672;2022-07-23T11:28:10;28.30;45.60
27258;DHT22;62045;49.986;8.672;2022-07-23T11:33:20;28.30;46.50
27258;DHT22;62045;49.986;8.672;2022-07-23T11:38:22;28.30;45.70
27258;DHT22;62045;49.986;8.672;2022-07-23T11:43:23;28.30;45.70
27258;DHT22;62045;49.986;8.672;2022-07-23T11:48:28;28.40;47.00
27258;DHT22;62045;49.986;8.672;2022-07-23T11:53:31;28.40;52.30
27258;DHT22;62045;49.986;8.672;2022-07-23T11:58:32;28.50;54.50
27258;DHT22;62045;49.986;8.672;2022-07-23T12:03:34;28.70;56.40
27258;DHT22;62045;49.986;8.672;2022-07-23T12:08:41;28.80;56.90
27258;DHT22;62045;49.986;8.672;2022-07-23T12:13:41;28.90;57.70
27258;DHT22;62045;49.986;8.672;2022-07-23T12:18:44;29.00;58.30
27258;DHT22;62045;49.986;8.672;2022-07-23T12:23:48;29.10;58.40
27258;DHT22;62045;49.986;8.672;2022-07-23T12:28:52;29.20;55.60
27258;DHT22;62045;49.986;8.672;2022-07-23T12:33:54;29.10;54.10
27258;DHT22;62045;49.986;8.672;2022-07-23T12:38:55;29.20;51.50
27258;DHT22;62045;49.986;8.672;2022-07-23T12:43:56;29.10;49.80
27258;DHT22;62045;49.986;8.672;2022-07-23T12:48:58;29.00;48.90
27258;DHT22;62045;49.986;8.672;2022-07-23T12:54:07;29.00;47.40
27258;DHT22;62045;49.986;8.672;2022-07-23T12:59:10;28.90;46.40
27258;DHT22;62045;49.986;8.672;2022-07-23T13:04:13;28.90;49.30
27258;DHT22;62045;49.986;8.672;2022-07-23T13:09:17;29.00;48.80
27258;DHT22;62045;49.986;8.672;2022-07-23T13:14:19;29.00;51.40
27258;DHT22;62045;49.986;8.672;2022-07-23T13:19:22;29.00;49.20
27258;DHT22;62045;49.986;8.672;2022-07-23T13:24:22;29.10;47.40
27258;DHT22;62045;49.986;8.672;2022-07-23T13:29:24;29.10;47.50
27258;DHT22;62045;49.986;8.672;2022-07-23T13:34:26;29.20;47.10
27258;DHT22;62045;49.986;8.672;2022-07-23T13:39:27;29.10;45.40
27258;DHT22;62045;49.986;8.672;2022-07-23T13:44:28;29.10;44.20
27258;DHT22;62045;49.986;8.672;2022-07-23T13:49:30;29.00;43.90
27258;DHT22;62045;49.986;8.672;2022-07-23T13:54:31;29.00;42.80
27258;DHT22;62045;49.986;8.672;2022-07-23T13:59:32;29.00;41.80
27258;DHT22;62045;49.986;8.672;2022-07-23T14:04:35;29.00;41.00
27258;DHT22;62045;49.986;8.672;2022-07-23T14:09:36;29.00;41.20
27258;DHT22;62045;49.986;8.672;2022-07-23T14:14:37;29.00;41.10
27258;DHT22;62045;49.986;8.672;2022-07-23T14:19:40;29.00;41.20
27258;DHT22;62045;49.986;8.672;2022-07-23T14:24:41;29.10;41.30
27258;DHT22;62045;49.986;8.672;2022-07-23T14:29:42;29.10;41.20
27258;DHT22;62045;49.986;8.672;2022-07-23T14:34:44;29.00;41.00
27258;DHT22;62045;49.986;8.672;2022-07-23T14:39:46;29.10;40.90
27258;DHT22;62045;49.986;8.672;2022-07-23T14:44:47;29.10;40.70
27258;DHT22;62045;49.986;8.672;2022-07-23T14:49:49;29.10;40.70
27258;DHT22;62045;49.986;8.672;2022-07-23T14:54:50;29.10;40.80
27258;DHT22;62045;49.986;8.672;2022-07-23T14:59:51;29.10;40.70
27258;DHT22;62045;49.986;8.672;2022-07-23T15:04:53;29.10;40.70
27258;DHT22;62045;49.986;8.672;2022-07-23T15:09:54;29.20;40.40
27258;DHT22;62045;49.986;8.672;2022-07-23T15:14:55;29.20;40.50
27258;DHT22;62045;49.986;8.672;2022-07-23T15:19:57;29.20;41.20
27258;DHT22;62045;49.986;8.672;2022-07-23T15:24:58;29.20;41.50
27258;DHT22;62045;49.986;8.672;2022-07-23T15:29:59;29.20;45.30
27258;DHT22;62045;49.986;8.672;2022-07-23T15:35:02;29.30;45.50
27258;DHT22;62045;49.986;8.672;2022-07-23T15:40:03;29.40;44.90
27258;DHT22;62045;49.986;8.672;2022-07-23T15:45:05;29.40;44.50
27258;DHT22;62045;49.986;8.672;2022-07-23T15:50:08;29.40;44.30
27258;DHT22;62045;49.986;8.672;2022-07-23T15:55:09;29.40;44.10
27258;DHT22;62045;49.986;8.672;2022-07-23T16:00:11;29.40;44.00
27258;DHT22;62045;49.986;8.672;2022-07-23T16:05:13;29.40;43.80
27258;DHT22;62045;49.986;8.672;2022-07-23T16:10:14;29.40;43.70
27258;DHT22;62045;49.986;8.672;2022-07-23T16:15:15;29.40;43.60
27258;DHT22;62045;49.986;8.672;2022-07-23T16:20:17;29.50;43.60
27258;DHT22;62045;49.986;8.672;2022-07-23T16:25:18;29.50;43.50
27258;DHT22;62045;49.986;8.672;2022-07-23T16:30:19;29.50;43.40
27258;DHT22;62045;49.986;8.672;2022-07-23T16:35:22;29.50;43.40
27258;DHT22;62045;49.986;8.672;2022-07-23T16:40:22;29.50;43.30
27258;DHT22;62045;49.986;8.672;2022-07-23T16:45:24;29.50;43.30
27258;DHT22;62045;49.986;8.672;2022-07-23T16:50:26;29.50;43.20
27258;DHT22;62045;49.986;8.672;2022-07-23T16:55:27;29.60;43.30
27258;DHT22;62045;49.986;8.672;2022-07-23T17:00:28;29.60;43.30
27258;DHT22;62045;49.986;8.672;2022-07-23T17:05:30;29.60;43.30
27258;DHT22;62045;49.986;8.672;2022-07-23T17:10:31;29.60;43.30
27258;DHT22;62045;49.986;8.672;2022-07-23T17:15:32;29.60;43.30
27258;DHT22;62045;49.986;8.672;2022-07-23T17:20:35;29.60;43.90
27258;DHT22;62045;49.986;8.672;2022-07-23T17:25:35;29.60;43.30
27258;DHT22;62045;49.986;8.672;2022-07-23T17:30:36;29.60;43.30
27258;DHT22;62045;49.986;8.672;2022-07-23T17:35:39;29.60;43.30
27258;DHT22;62045;49.986;8.672;2022-07-23T17:40:40;29.60;43.30
27258;DHT22;62045;49.986;8.672;2022-07-23T17:45:41;29.60;43.30
27258;DHT22;62045;49.986;8.672;2022-07-23T17:50:43;29.60;43.30
27258;DHT22;62045;49.986;8.672;2022-07-23T17:55:44;29.60;43.30
27258;DHT22;62045;49.986;8.672;2022-07-23T18:00:45;29.60;43.30
27258;DHT22;62045;49.986;8.672;2022-07-23T18:05:47;29.70;43.40
27258;DHT22;62045;49.986;8.672;2022-07-23T18:10:48;29.70;43.40
27258;DHT22;62045;49.986;8.672;2022-07-23T18:15:49;29.70;43.40
27258;DHT22;62045;49.986;8.672;2022-07-23T18:20:51;29.70;43.40
27258;DHT22;62045;49.986;8.672;2022-07-23T18:25:52;29.70;43.40
27258;DHT22;62045;49.986;8.672;2022-07-23T18:30:53;29.70;43.40
27258;DHT22;62045;49.986;8.672;2022-07-23T18:35:56;29.70;43.40
27258;DHT22;62045;49.986;8.672;2022-07-23T18:40:57;29.70;43.40
27258;DHT22;62045;49.986;8.672;2022-07-23T18:45:58;29.70;43.40
27258;DHT22;62045;49.986;8.672;2022-07-23T18:51:00;29.70;43.40
27258;DHT22;62045;49.986;8.672;2022-07-23T18:56:01;29.70;43.40
27258;DHT22;62045;49.986;8.672;2022-07-23T19:01:02;29.70;43.40
27258;DHT22;62045;49.986;8.672;2022-07-23T19:06:05;29.70;43.40
27258;DHT22;62045;49.986;8.672;2022-07-23T19:11:05;29.70;43.30
27258;DHT22;62045;49.986;8.672;2022-07-23T19:16:07;29.70;43.40
27258;DHT22;62045;49.986;8.672;2022-07-23T19:21:09;29.70;43.30
27258;DHT22;62045;49.986;8.672;2022-07-23T19:26:10;29.70;43.20
27258;DHT22;62045;49.986;8.672;2022-07-23T19:31:11;29.70;43.20
27258;DHT22;62045;49.986;8.672;2022-07-23T19:36:14;29.70;43.10
27258;DHT22;62045;49.986;8.672;2022-07-23T19:41:15;29.70;43.00
27258;DHT22;62045;49.986;8.672;2022-07-23T19:46:16;29.70;42.90
27258;DHT22;62045;49.986;8.672;2022-07-23T19:51:18;29.70;42.90
27258;DHT22;62045;49.986;8.672;2022-07-23T19:56:19;29.70;42.90
27258;DHT22;62045;49.986;8.672;2022-07-23T20:01:20;29.70;42.80
27258;DHT22;62045;49.986;8.672;2022-07-23T20:06:22;29.70;42.80
27258;DHT22;62045;49.986;8.672;2022-07-23T20:11:23;29.60;42.70
27258;DHT22;62045;49.986;8.672;2022-07-23T20:16:24;29.70;42.70
27258;DHT22;62045;49.986;8.672;2022-07-23T20:21:27;29.60;42.60
27258;DHT22;62045;49.986;8.672;2022-07-23T20:26:28;29.60;42.50
27258;DHT22;62045;49.986;8.672;2022-07-23T20:31:29;29.60;42.50
27258;DHT22;62045;49.986;8.672;2022-07-23T20:36:31;29.60;42.50
27258;DHT22;62045;49.986;8.672;2022-07-23T20:41:32;29.60;42.40
27258;DHT22;62045;49.986;8.672;2022-07-23T20:46:33;29.60;42.40
27258;DHT22;62045;49.986;8.672;2022-07-23T20:51:36;29.60;42.40
27258;DHT22;62045;49.986;8.672;2022-07-23T20:56:37;29.60;42.40
27258;DHT22;62045;49.986;8.672;2022-07-23T21:01:38;29.60;42.40
27258;DHT22;62045;49.986;8.672;2022-07-23T21:06:40;29.60;42.30
27258;DHT22;62045;49.986;8.672;2022-07-23T21:11:41;29.60;42.30
27258;DHT22;62045;49.986;8.672;2022-07-23T21:16:42;29.60;42.30
27258;DHT22;62045;49.986;8.672;2022-07-23T21:21:44;29.60;42.20
27258;DHT22;62045;49.986;8.672;2022-07-23T21:26:46;29.60;42.30
27258;DHT22;62045;49.986;8.672;2022-07-23T21:31:47;29.60;42.70
27258;DHT22;62045;49.986;8.672;2022-07-23T21:36:49;29.60;42.50
27258;DHT22;62045;49.986;8.672;2022-07-23T21:41:50;29.50;42.40
27258;DHT22;62045;49.986;8.672;2022-07-23T21:46:51;29.50;42.40
27258;DHT22;62045;49.986;8.672;2022-07-23T21:51:53;29.50;42.40
27258;DHT22;62045;49.986;8.672;2022-07-23T21:56:54;29.40;42.30
27258;DHT22;62045;49.986;8.672;2022-07-23T22:01:55;29.40;42.40
27258;DHT22;62045;49.986;8.672;2022-07-23T22:06:57;29.40;42.40
27258;DHT22;62045;49.986;8.672;2022-07-23T22:11:58;29.30;42.40
27258;DHT22;62045;49.986;8.672;2022-07-23T22:16:59;29.30;42.50
27258;DHT22;62045;49.986;8.672;2022-07-23T22:22:01;29.30;42.50
27258;DHT22;62045;49.986;8.672;2022-07-23T22:27:02;29.30;42.60
27258;DHT22;62045;49.986;8.672;2022-07-23T22:32:03;29.20;42.60
27258;DHT22;62045;49.986;8.672;2022-07-23T22:37:06;29.20;42.70
27258;DHT22;62045;49.986;8.672;2022-07-23T22:42:06;29.20;42.70
27258;DHT22;62045;49.986;8.672;2022-07-23T22:47:07;29.20;42.80
27258;DHT22;62045;49.986;8.672;2022-07-23T22:52:10;29.20;42.90
27258;DHT22;62045;49.986;8.672;2022-07-23T22:57:12;29.20;42.90
27258;DHT22;62045;49.986;8.672;2022-07-23T23:02:13;29.20;43.00
27258;DHT22;62045;49.986;8.672;2022-07-23T23:07:15;29.20;43.00
27258;DHT22;62045;49.986;8.672;2022-07-23T23:12:16;29.20;43.10
27258;DHT22;62045;49.986;8.672;2022-07-23T23:17:17;29.20;43.10
27258;DHT22;62045;49.986;8.672;2022-07-23T23:22:19;29.20;43.10
27258;DHT22;62045;49.986;8.672;2022-07-23T23:27:20;29.20;43.10
27258;DHT22;62045;49.986;8.672;2022-07-23T23:32:21;29.20;43.10
27258;DHT22;62045;49.986;8.672;2022-07-23T23:37:23;29.20;43.10
27258;DHT22;62045;49.986;8.672;2022-07-23T23:42:26;29.20;43.20
27258;DHT22;62045;49.986;8.672;2022-07-23T23:47:27;29.20;43.30
27258;DHT22;62045;49.986;8.672;2022-07-23T23:52:29;29.20;43.20
27258;DHT22;62045;49.986;8.672;2022-07-23T23:57:30;29.20;43.20
